createdAt,value
2018-04-15T00:01:03.018Z,988.48
2018-04-15T00:02:09.838Z,988.48
2018-04-15T00:03:16.656Z,988.43
2018-04-15T00:04:23.551Z,988.41
2018-04-15T00:05:30.365Z,988.49
2018-04-15T00:06:37.179Z,988.38
2018-04-15T00:07:43.993Z,988.37
2018-04-15T00:08:50.787Z,988.39
2018-04-15T00:09:57.711Z,988.44
2018-04-15T00:11:04.538Z,988.36
2018-04-15T00:12:11.487Z,988.39
2018-04-15T00:13:18.254Z,988.32
2018-04-15T00:14:25.183Z,988.32
2018-04-15T00:15:31.998Z,988.27
2018-04-15T00:16:38.766Z,988.32
2018-04-15T00:17:45.735Z,988.35
2018-04-15T00:18:52.528Z,988.33
2018-04-15T00:19:59.567Z,988.30
2018-04-15T00:21:06.375Z,988.25
2018-04-15T00:22:13.194Z,988.27
2018-04-15T00:23:20.067Z,988.26
2018-04-15T00:24:26.980Z,988.24
2018-04-15T00:25:34.181Z,988.25
2018-04-15T00:26:41.124Z,988.29
2018-04-15T00:27:48.002Z,988.27
2018-04-15T00:28:54.882Z,988.18
2018-04-15T00:30:01.812Z,988.25
2018-04-15T00:31:08.935Z,988.23
2018-04-15T00:32:15.797Z,988.20
2018-04-15T00:33:22.715Z,988.14
2018-04-15T00:34:29.651Z,988.15
2018-04-15T00:35:36.691Z,988.10
2018-04-15T00:36:43.719Z,988.06
2018-04-15T00:37:50.744Z,988.07
2018-04-15T00:38:57.619Z,988.02
2018-04-15T00:40:04.574Z,988.06
2018-04-15T00:41:11.506Z,987.97
2018-04-15T00:42:18.693Z,988.02
2018-04-15T00:43:25.647Z,988.00
2018-04-15T00:44:32.602Z,988.06
2018-04-15T00:45:39.862Z,987.95
2018-04-15T00:46:46.840Z,987.98
2018-04-15T00:47:53.647Z,987.98
2018-04-15T00:49:00.450Z,987.95
2018-04-15T00:50:07.250Z,987.98
2018-04-15T00:51:14.072Z,988.03
2018-04-15T00:52:20.867Z,987.93
2018-04-15T00:53:27.651Z,987.92
2018-04-15T00:54:34.545Z,987.86
2018-04-15T00:55:41.419Z,987.84
2018-04-15T00:56:48.220Z,987.87
2018-04-15T00:57:55.334Z,987.84
2018-04-15T00:59:02.158Z,987.83
2018-04-15T01:00:08.973Z,987.90
2018-04-15T01:01:16.127Z,987.74
2018-04-15T01:02:22.926Z,987.86
2018-04-15T01:03:29.715Z,987.77
2018-04-15T01:04:36.491Z,987.76
2018-04-15T01:05:43.287Z,987.79
2018-04-15T01:06:50.084Z,987.69
2018-04-15T01:07:57.219Z,987.76
2018-04-15T01:09:04.066Z,987.72
2018-04-15T01:10:10.962Z,987.70
2018-04-15T01:11:17.914Z,987.67
2018-04-15T01:12:24.842Z,987.69
2018-04-15T01:13:31.664Z,987.68
2018-04-15T01:14:38.725Z,987.71
2018-04-15T01:15:45.511Z,987.71
2018-04-15T01:16:52.275Z,987.69
2018-04-15T01:17:59.179Z,987.70
2018-04-15T01:19:05.980Z,987.74
2018-04-15T01:20:12.757Z,987.74
2018-04-15T01:21:19.551Z,987.73
2018-04-15T01:22:26.355Z,987.78
2018-04-15T01:23:33.357Z,987.77
2018-04-15T01:24:40.148Z,987.73
2018-04-15T01:25:46.993Z,987.73
2018-04-15T01:26:53.867Z,987.73
2018-04-15T01:28:00.655Z,987.74
2018-04-15T01:29:07.463Z,987.75
2018-04-15T01:30:14.308Z,987.74
2018-04-15T01:31:21.173Z,987.66
2018-04-15T01:32:28.063Z,987.68
2018-04-15T01:33:34.843Z,987.66
2018-04-15T01:34:41.631Z,987.65
2018-04-15T01:35:48.483Z,987.68
2018-04-15T01:36:55.271Z,987.65
2018-04-15T01:38:02.037Z,987.63
2018-04-15T01:39:08.881Z,987.57
2018-04-15T01:40:15.687Z,987.60
2018-04-15T01:41:22.672Z,987.60
2018-04-15T01:42:29.439Z,987.57
2018-04-15T01:43:36.231Z,987.53
2018-04-15T01:44:43.092Z,987.47
2018-04-15T01:45:49.927Z,987.51
2018-04-15T01:46:56.706Z,987.42
2018-04-15T01:48:03.503Z,987.41
2018-04-15T01:49:10.354Z,987.47
2018-04-15T01:50:17.159Z,987.52
2018-04-15T01:51:23.914Z,987.54
2018-04-15T01:52:30.681Z,987.50
2018-04-15T01:53:37.531Z,987.50
2018-04-15T01:54:44.323Z,987.49
2018-04-15T01:55:51.119Z,987.43
2018-04-15T01:56:57.899Z,987.49
2018-04-15T01:58:04.751Z,987.46
2018-04-15T01:59:11.525Z,987.55
2018-04-15T02:00:18.299Z,987.52
2018-04-15T02:01:25.190Z,987.54
2018-04-15T02:02:32.050Z,987.57
2018-04-15T02:03:39.035Z,987.51
2018-04-15T02:04:45.942Z,987.58
2018-04-15T02:05:52.839Z,987.46
2018-04-15T02:06:59.614Z,987.50
2018-04-15T02:08:06.392Z,987.52
2018-04-15T02:09:13.248Z,987.49
2018-04-15T02:10:20.138Z,987.53
2018-04-15T02:11:26.980Z,987.46
2018-04-15T02:12:33.783Z,987.39
2018-04-15T02:13:40.568Z,987.41
2018-04-15T02:14:47.415Z,987.41
2018-04-15T02:15:54.227Z,987.33
2018-04-15T02:17:01.231Z,987.30
2018-04-15T02:18:08.123Z,987.29
2018-04-15T02:19:15.003Z,987.30
2018-04-15T02:20:21.943Z,987.29
2018-04-15T02:21:28.812Z,987.30
2018-04-15T02:22:35.616Z,987.29
2018-04-15T02:23:42.415Z,987.30
2018-04-15T02:24:49.230Z,987.31
2018-04-15T02:25:56.020Z,987.23
2018-04-15T02:27:02.911Z,987.27
2018-04-15T02:28:09.696Z,987.23
2018-04-15T02:29:16.486Z,987.12
2018-04-15T02:30:23.283Z,987.24
2018-04-15T02:31:30.086Z,987.16
2018-04-15T02:32:36.887Z,987.15
2018-04-15T02:33:43.699Z,987.12
2018-04-15T02:34:50.519Z,987.13
2018-04-15T02:35:57.323Z,987.18
2018-04-15T02:37:04.123Z,987.20
2018-04-15T02:38:10.987Z,987.17
2018-04-15T02:39:17.785Z,987.19
2018-04-15T02:40:24.750Z,987.24
2018-04-15T02:41:31.575Z,987.18
2018-04-15T02:42:38.383Z,987.17
2018-04-15T02:43:45.230Z,987.19
2018-04-15T02:44:52.027Z,987.19
2018-04-15T02:45:58.974Z,987.19
2018-04-15T02:47:05.776Z,987.20
2018-04-15T02:48:12.593Z,987.26
2018-04-15T02:49:19.440Z,987.24
2018-04-15T02:50:26.232Z,987.27
2018-04-15T02:51:33.043Z,987.23
2018-04-15T02:52:39.835Z,987.19
2018-04-15T02:53:46.670Z,987.17
2018-04-15T02:54:53.462Z,987.16
2018-04-15T02:56:00.274Z,987.12
2018-04-15T02:57:07.139Z,987.19
2018-04-15T02:58:14.003Z,987.21
2018-04-15T02:59:20.783Z,987.14
2018-04-15T03:00:27.564Z,987.17
2018-04-15T03:01:34.447Z,987.15
2018-04-15T03:02:41.284Z,987.16
2018-04-15T03:03:48.143Z,987.22
2018-04-15T03:04:54.990Z,987.17
2018-04-15T03:06:01.802Z,987.25
2018-04-15T03:07:08.604Z,987.23
2018-04-15T03:08:15.434Z,987.16
2018-04-15T03:09:22.247Z,987.20
2018-04-15T03:10:29.012Z,987.13
2018-04-15T03:11:35.957Z,987.17
2018-04-15T03:12:42.762Z,987.16
2018-04-15T03:13:49.518Z,987.14
2018-04-15T03:14:56.311Z,987.08
2018-04-15T03:16:03.111Z,987.07
2018-04-15T03:17:09.915Z,987.13
2018-04-15T03:18:16.734Z,987.13
2018-04-15T03:19:23.563Z,987.00
2018-04-15T03:20:30.351Z,987.06
2018-04-15T03:21:37.159Z,987.05
2018-04-15T03:22:43.927Z,987.06
2018-04-15T03:23:50.712Z,987.07
2018-04-15T03:24:57.622Z,987.03
2018-04-15T03:26:04.459Z,987.03
2018-04-15T03:27:11.345Z,987.04
2018-04-15T03:28:18.115Z,986.96
2018-04-15T03:29:24.920Z,986.95
2018-04-15T03:30:31.709Z,986.96
2018-04-15T03:31:38.471Z,987.00
2018-04-15T03:32:45.265Z,986.94
2018-04-15T03:33:52.026Z,987.03
2018-04-15T03:34:58.911Z,986.92
2018-04-15T03:36:05.798Z,986.95
2018-04-15T03:37:12.554Z,986.88
2018-04-15T03:38:19.450Z,986.81
2018-04-15T03:39:26.254Z,986.79
2018-04-15T03:40:33.236Z,986.76
2018-04-15T03:41:40.027Z,986.86
2018-04-15T03:42:46.995Z,986.84
2018-04-15T03:43:53.843Z,986.81
2018-04-15T03:45:00.706Z,986.77
2018-04-15T03:46:07.571Z,986.71
2018-04-15T03:47:14.498Z,986.80
2018-04-15T03:48:21.295Z,986.79
2018-04-15T03:49:28.070Z,986.69
2018-04-15T03:50:34.889Z,986.72
2018-04-15T03:51:41.695Z,986.75
2018-04-15T03:52:48.580Z,986.70
2018-04-15T03:53:55.358Z,986.66
2018-04-15T03:55:02.146Z,986.61
2018-04-15T03:56:08.922Z,986.61
2018-04-15T03:57:15.786Z,986.66
2018-04-15T03:58:22.567Z,986.63
2018-04-15T03:59:29.340Z,986.57
2018-04-15T04:00:36.187Z,986.59
2018-04-15T04:01:42.993Z,986.61
2018-04-15T04:02:49.803Z,986.63
2018-04-15T04:03:56.619Z,986.58
2018-04-15T04:05:03.416Z,986.65
2018-04-15T04:06:10.202Z,986.69
2018-04-15T04:07:17.066Z,986.64
2018-04-15T04:08:23.887Z,986.56
2018-04-15T04:09:30.674Z,986.55
2018-04-15T04:10:37.478Z,986.58
2018-04-15T04:11:44.269Z,986.56
2018-04-15T04:12:51.082Z,986.57
2018-04-15T04:13:57.919Z,986.53
2018-04-15T04:15:04.706Z,986.51
2018-04-15T04:16:11.479Z,986.54
2018-04-15T04:17:18.367Z,986.54
2018-04-15T04:18:25.168Z,986.48
2018-04-15T04:19:32.163Z,986.57
2018-04-15T04:20:44.749Z,986.55
2018-04-15T04:21:54.578Z,986.48
2018-04-15T04:23:01.575Z,986.43
2018-04-15T04:24:08.267Z,986.40
2018-04-15T04:25:25.401Z,986.39
2018-04-15T04:26:31.548Z,986.34
2018-04-15T04:27:38.435Z,986.37
2018-04-15T04:28:45.424Z,986.34
2018-04-15T04:29:52.227Z,986.32
2018-04-15T04:30:59.067Z,986.37
2018-04-15T04:32:05.935Z,986.39
2018-04-15T04:33:12.729Z,986.38
2018-04-15T04:34:19.479Z,986.42
2018-04-15T04:35:26.376Z,986.34
2018-04-15T04:36:33.358Z,986.36
2018-04-15T04:37:40.145Z,986.34
2018-04-15T04:38:47.144Z,986.34
2018-04-15T04:39:53.932Z,986.34
2018-04-15T04:41:00.694Z,986.33
2018-04-15T04:42:07.475Z,986.30
2018-04-15T04:43:14.274Z,986.41
2018-04-15T04:44:21.082Z,986.31
2018-04-15T04:45:27.907Z,986.37
2018-04-15T04:46:34.690Z,986.32
2018-04-15T04:47:41.475Z,986.29
2018-04-15T04:48:48.348Z,986.38
2018-04-15T04:49:55.147Z,986.28
2018-04-15T04:51:01.944Z,986.28
2018-04-15T04:52:08.755Z,986.23
2018-04-15T04:53:15.671Z,986.37
2018-04-15T04:54:22.562Z,986.29
2018-04-15T04:55:29.370Z,986.43
2018-04-15T04:56:36.168Z,986.39
2018-04-15T04:57:43.162Z,986.36
2018-04-15T04:58:49.947Z,986.35
2018-04-15T04:59:56.774Z,986.39
2018-04-15T05:01:03.561Z,986.39
2018-04-15T05:02:10.358Z,986.37
2018-04-15T05:03:17.214Z,986.36
2018-04-15T05:04:24.043Z,986.39
2018-04-15T05:05:30.823Z,986.40
2018-04-15T05:06:37.643Z,986.38
2018-04-15T05:07:44.411Z,986.40
2018-04-15T05:08:51.160Z,986.31
2018-04-15T05:09:57.963Z,986.37
2018-04-15T05:11:04.764Z,986.36
2018-04-15T05:12:11.663Z,986.30
2018-04-15T05:13:18.493Z,986.36
2018-04-15T05:14:25.263Z,986.34
2018-04-15T05:15:32.075Z,986.35
2018-04-15T05:16:38.943Z,986.40
2018-04-15T05:17:45.734Z,986.43
2018-04-15T05:18:52.601Z,986.40
2018-04-15T05:19:59.415Z,986.37
2018-04-15T05:21:06.271Z,986.38
2018-04-15T05:22:13.118Z,986.39
2018-04-15T05:23:19.894Z,986.47
2018-04-15T05:24:26.730Z,986.36
2018-04-15T05:25:33.859Z,986.41
2018-04-15T05:26:40.733Z,986.35
2018-04-15T05:27:47.563Z,986.33
2018-04-15T05:28:54.852Z,986.36
2018-04-15T05:30:01.660Z,986.39
2018-04-15T05:31:08.676Z,986.33
2018-04-15T05:32:15.549Z,986.35
2018-04-15T05:33:22.343Z,986.25
2018-04-15T05:34:29.175Z,986.30
2018-04-15T05:35:36.107Z,986.34
2018-04-15T05:36:43.191Z,986.36
2018-04-15T05:37:50.331Z,986.29
2018-04-15T05:38:57.159Z,986.37
2018-04-15T05:40:03.911Z,986.25
2018-04-15T05:41:10.869Z,986.21
2018-04-15T05:42:17.540Z,986.26
2018-04-15T05:43:24.335Z,986.25
2018-04-15T05:44:31.127Z,986.25
2018-04-15T05:45:37.930Z,986.19
2018-04-15T05:46:44.798Z,986.22
2018-04-15T05:47:51.636Z,986.17
2018-04-15T05:48:58.505Z,986.25
2018-04-15T05:50:05.269Z,986.12
2018-04-15T05:51:12.103Z,986.13
2018-04-15T05:52:18.942Z,986.16
2018-04-15T05:53:25.795Z,986.16
2018-04-15T05:54:32.992Z,986.08
2018-04-15T05:55:40.449Z,986.14
2018-04-15T05:56:46.851Z,986.19
2018-04-15T05:57:53.166Z,986.18
2018-04-15T05:59:00.030Z,986.12
2018-04-15T06:00:06.944Z,986.15
2018-04-15T06:01:13.767Z,986.11
2018-04-15T06:02:20.834Z,986.08
2018-04-15T06:03:27.517Z,986.12
2018-04-15T06:04:34.588Z,986.08
2018-04-15T06:05:41.490Z,986.14
2018-04-15T06:06:48.491Z,986.13
2018-04-15T06:07:55.431Z,986.12
2018-04-15T06:09:02.363Z,986.10
2018-04-15T06:10:09.440Z,986.09
2018-04-15T06:11:16.395Z,986.07
2018-04-15T06:12:23.338Z,986.09
2018-04-15T06:13:30.278Z,986.06
2018-04-15T06:14:37.111Z,986.04
2018-04-15T06:15:44.061Z,986.00
2018-04-15T06:16:50.920Z,986.01
2018-04-15T06:17:57.864Z,985.98
2018-04-15T06:19:04.868Z,985.95
2018-04-15T06:20:11.771Z,985.98
2018-04-15T06:21:18.683Z,985.90
2018-04-15T06:22:25.830Z,985.94
2018-04-15T06:23:32.672Z,985.89
2018-04-15T06:24:39.692Z,985.91
2018-04-15T06:25:46.854Z,985.85
2018-04-15T06:26:53.309Z,985.93
2018-04-15T06:28:00.248Z,985.88
2018-04-15T06:29:07.256Z,985.90
2018-04-15T06:30:14.447Z,985.92
2018-04-15T06:31:21.516Z,985.94
2018-04-15T06:32:28.653Z,985.93
2018-04-15T06:33:35.821Z,985.95
2018-04-15T06:34:42.716Z,985.96
2018-04-15T06:35:49.687Z,985.91
2018-04-15T06:36:56.793Z,986.00
2018-04-15T06:38:03.638Z,985.94
2018-04-15T06:39:10.515Z,985.94
2018-04-15T06:40:17.345Z,985.97
2018-04-15T06:41:24.173Z,986.03
2018-04-15T06:42:31.271Z,985.96
2018-04-15T06:43:38.152Z,986.00
2018-04-15T06:44:44.971Z,985.95
2018-04-15T06:45:51.887Z,985.93
2018-04-15T06:46:58.720Z,985.98
2018-04-15T06:48:05.587Z,985.94
2018-04-15T06:49:12.452Z,985.95
2018-04-15T06:50:19.279Z,985.96
2018-04-15T06:51:26.115Z,985.96
2018-04-15T06:52:32.987Z,985.96
2018-04-15T06:53:39.912Z,986.02
2018-04-15T06:54:46.751Z,985.99
2018-04-15T06:55:53.571Z,985.95
2018-04-15T06:57:00.424Z,985.94
2018-04-15T06:58:07.275Z,985.98
2018-04-15T06:59:14.226Z,985.96
2018-04-15T07:00:21.080Z,985.93
2018-04-15T07:01:28.004Z,985.95
2018-04-15T07:02:34.782Z,985.92
2018-04-15T07:03:41.587Z,985.95
2018-04-15T07:04:48.376Z,985.99
2018-04-15T07:05:55.191Z,985.95
2018-04-15T07:07:02.031Z,985.90
2018-04-15T07:08:08.878Z,985.93
2018-04-15T07:09:15.664Z,985.82
2018-04-15T07:10:22.623Z,985.81
2018-04-15T07:11:29.412Z,985.91
2018-04-15T07:12:36.206Z,985.82
2018-04-15T07:13:43.039Z,985.79
2018-04-15T07:14:49.845Z,985.80
2018-04-15T07:15:56.682Z,985.75
2018-04-15T07:17:03.535Z,985.75
2018-04-15T07:18:10.378Z,985.78
2018-04-15T07:19:17.175Z,985.76
2018-04-15T07:20:23.956Z,985.81
2018-04-15T07:21:30.807Z,985.79
2018-04-15T07:22:37.695Z,985.77
2018-04-15T07:23:44.528Z,985.83
2018-04-15T07:24:51.500Z,985.86
2018-04-15T07:25:58.442Z,985.83
2018-04-15T07:27:05.289Z,985.85
2018-04-15T07:28:12.120Z,985.80
2018-04-15T07:29:19.046Z,985.81
2018-04-15T07:30:26.327Z,985.78
2018-04-15T07:31:33.568Z,985.71
2018-04-15T07:32:40.228Z,985.75
2018-04-15T07:33:47.215Z,985.81
2018-04-15T07:34:54.044Z,985.76
2018-04-15T07:36:00.869Z,985.81
2018-04-15T07:37:07.747Z,985.68
2018-04-15T07:38:14.538Z,985.74
2018-04-15T07:39:21.368Z,985.69
2018-04-15T07:40:28.272Z,985.73
2018-04-15T07:41:35.077Z,985.64
2018-04-15T07:42:41.972Z,985.71
2018-04-15T07:43:48.868Z,985.69
2018-04-15T07:44:55.673Z,985.66
2018-04-15T07:46:02.475Z,985.70
2018-04-15T07:47:09.343Z,985.72
2018-04-15T07:48:16.343Z,985.63
2018-04-15T07:49:23.130Z,985.66
2018-04-15T07:50:30.303Z,985.70
2018-04-15T07:51:37.049Z,985.63
2018-04-15T07:52:43.874Z,985.69
2018-04-15T07:53:50.718Z,985.66
2018-04-15T07:54:57.620Z,985.59
2018-04-15T07:56:04.230Z,985.65
2018-04-15T07:57:11.020Z,985.55
2018-04-15T07:58:17.815Z,985.66
2018-04-15T07:59:24.602Z,985.61
2018-04-15T08:00:31.603Z,985.62
2018-04-15T08:01:38.539Z,985.70
2018-04-15T08:02:45.580Z,985.64
2018-04-15T08:03:52.645Z,985.64
2018-04-15T08:04:59.061Z,985.66
2018-04-15T08:06:05.850Z,985.62
2018-04-15T08:07:12.659Z,985.62
2018-04-15T08:08:19.455Z,985.65
2018-04-15T08:09:26.537Z,985.60
2018-04-15T08:10:33.452Z,985.59
2018-04-15T08:11:40.298Z,985.58
2018-04-15T08:12:47.086Z,985.58
2018-04-15T08:13:53.797Z,985.60
2018-04-15T08:15:00.735Z,985.64
2018-04-15T08:16:07.534Z,985.61
2018-04-15T08:17:14.455Z,985.52
2018-04-15T08:18:21.455Z,985.54
2018-04-15T08:19:28.427Z,985.57
2018-04-15T08:20:35.355Z,985.57
2018-04-15T08:21:42.139Z,985.53
2018-04-15T08:22:49.039Z,985.58
2018-04-15T08:23:56.008Z,985.56
2018-04-15T08:25:02.860Z,985.51
2018-04-15T08:26:09.803Z,985.47
2018-04-15T08:27:16.891Z,985.61
2018-04-15T08:28:23.962Z,985.50
2018-04-15T08:29:30.981Z,985.51
2018-04-15T08:30:38.155Z,985.49
2018-04-15T08:31:45.017Z,985.49
2018-04-15T08:32:51.905Z,985.43
2018-04-15T08:33:58.888Z,985.52
2018-04-15T08:35:05.861Z,985.53
2018-04-15T08:36:12.910Z,985.61
2018-04-15T08:37:20.295Z,985.55
2018-04-15T08:38:26.719Z,985.55
2018-04-15T08:39:33.575Z,985.61
2018-04-15T08:40:40.503Z,985.51
2018-04-15T08:41:47.428Z,985.50
2018-04-15T08:42:54.314Z,985.52
2018-04-15T08:44:01.580Z,985.48
2018-04-15T08:45:07.964Z,985.43
2018-04-15T08:46:14.943Z,985.46
2018-04-15T08:47:22.228Z,985.36
2018-04-15T08:48:28.688Z,985.38
2018-04-15T08:49:35.653Z,985.41
2018-04-15T08:50:43.445Z,985.40
2018-04-15T08:51:49.414Z,985.41
2018-04-15T08:52:56.199Z,985.41
2018-04-15T08:54:03.028Z,985.42
2018-04-15T08:55:09.840Z,985.39
2018-04-15T08:56:17.119Z,985.42
2018-04-15T08:57:23.917Z,985.45
2018-04-15T08:58:30.826Z,985.50
2018-04-15T08:59:37.643Z,985.43
2018-04-15T09:00:44.603Z,985.47
2018-04-15T09:01:51.423Z,985.49
2018-04-15T09:02:58.210Z,985.50
2018-04-15T09:04:05.324Z,985.50
2018-04-15T09:05:12.024Z,985.50
2018-04-15T09:06:19.027Z,985.51
2018-04-15T09:07:26.182Z,985.45
2018-04-15T09:08:33.074Z,985.51
2018-04-15T09:09:39.922Z,985.47
2018-04-15T09:10:46.725Z,985.53
2018-04-15T09:11:53.665Z,985.57
2018-04-15T09:13:00.501Z,985.46
2018-04-15T09:14:07.311Z,985.42
2018-04-15T09:15:14.140Z,985.44
2018-04-15T09:16:20.931Z,985.47
2018-04-15T09:17:27.875Z,985.48
2018-04-15T09:18:34.995Z,985.42
2018-04-15T09:19:41.830Z,985.41
2018-04-15T09:20:48.706Z,985.33
2018-04-15T09:21:55.556Z,985.36
2018-04-15T09:23:02.372Z,985.32
2018-04-15T09:24:09.199Z,985.38
2018-04-15T09:25:16.104Z,985.32
2018-04-15T09:26:23.031Z,985.30
2018-04-15T09:27:29.923Z,985.34
2018-04-15T09:28:36.807Z,985.25
2018-04-15T09:29:43.607Z,985.25
2018-04-15T09:30:50.407Z,985.20
2018-04-15T09:31:57.253Z,985.25
2018-04-15T09:33:04.150Z,985.24
2018-04-15T09:34:11.024Z,985.20
2018-04-15T09:35:17.875Z,985.21
2018-04-15T09:36:24.664Z,985.22
2018-04-15T09:37:31.538Z,985.15
2018-04-15T09:38:38.328Z,985.15
2018-04-15T09:39:45.146Z,985.12
2018-04-15T09:40:52.229Z,985.10
2018-04-15T09:41:59.088Z,985.13
2018-04-15T09:43:05.905Z,985.05
2018-04-15T09:44:12.711Z,985.14
2018-04-15T09:45:19.699Z,985.06
2018-04-15T09:46:26.566Z,985.13
2018-04-15T09:47:33.579Z,985.13
2018-04-15T09:48:40.231Z,985.18
2018-04-15T09:49:47.130Z,985.17
2018-04-15T09:50:53.945Z,985.13
2018-04-15T09:52:00.952Z,985.17
2018-04-15T09:53:07.786Z,985.04
2018-04-15T09:54:14.714Z,985.13
2018-04-15T09:55:21.494Z,985.12
2018-04-15T09:56:28.319Z,985.09
2018-04-15T09:57:35.227Z,985.13
2018-04-15T09:58:42.067Z,985.09
2018-04-15T09:59:48.895Z,985.11
2018-04-15T10:00:55.719Z,985.12
2018-04-15T10:02:02.674Z,985.12
2018-04-15T10:03:09.532Z,985.09
2018-04-15T10:04:16.366Z,985.05
2018-04-15T10:05:23.140Z,985.06
2018-04-15T10:06:29.979Z,985.01
2018-04-15T10:07:36.802Z,985.02
2018-04-15T10:08:43.590Z,984.95
2018-04-15T10:09:50.503Z,985.06
2018-04-15T10:10:57.337Z,985.02
2018-04-15T10:12:04.118Z,985.04
2018-04-15T10:13:10.937Z,985.04
2018-04-15T10:14:17.779Z,985.00
2018-04-15T10:15:24.567Z,984.99
2018-04-15T10:16:31.407Z,985.04
2018-04-15T10:17:38.232Z,985.10
2018-04-15T10:18:45.025Z,985.05
2018-04-15T10:19:52.164Z,985.03
2018-04-15T10:20:59.023Z,985.06
2018-04-15T10:22:05.824Z,984.98
2018-04-15T10:23:12.638Z,985.02
2018-04-15T10:24:19.504Z,985.03
2018-04-15T10:25:26.342Z,984.97
2018-04-15T10:26:33.156Z,984.93
2018-04-15T10:27:39.974Z,984.92
2018-04-15T10:28:46.829Z,984.92
2018-04-15T10:29:53.799Z,984.93
2018-04-15T10:31:00.634Z,984.94
2018-04-15T10:32:07.591Z,984.94
2018-04-15T10:33:14.411Z,984.94
2018-04-15T10:34:21.402Z,984.89
2018-04-15T10:35:28.234Z,984.95
2018-04-15T10:36:35.070Z,984.90
2018-04-15T10:37:41.868Z,984.92
2018-04-15T10:38:50.294Z,984.92
2018-04-15T10:39:55.465Z,984.96
2018-04-15T10:41:02.349Z,984.92
2018-04-15T10:42:09.182Z,984.92
2018-04-15T10:43:16.271Z,984.90
2018-04-15T10:44:23.576Z,984.88
2018-04-15T10:45:31.473Z,984.85
2018-04-15T10:46:37.398Z,984.84
2018-04-15T10:47:44.014Z,984.80
2018-04-15T10:48:51.087Z,984.80
2018-04-15T10:49:58.675Z,984.83
2018-04-15T10:51:05.189Z,984.82
2018-04-15T10:52:11.784Z,984.89
2018-04-15T10:53:18.683Z,984.81
2018-04-15T10:54:25.687Z,984.75
2018-04-15T10:55:32.511Z,984.76
2018-04-15T10:56:39.329Z,984.81
2018-04-15T10:57:46.131Z,984.76
2018-04-15T10:58:52.948Z,984.76
2018-04-15T10:59:59.726Z,984.75
2018-04-15T11:01:06.566Z,984.78
2018-04-15T11:02:13.418Z,984.72
2018-04-15T11:03:20.360Z,984.66
2018-04-15T11:04:27.287Z,984.66
2018-04-15T11:05:34.211Z,984.68
2018-04-15T11:06:41.298Z,984.66
2018-04-15T11:07:48.152Z,984.66
2018-04-15T11:08:54.942Z,984.66
2018-04-15T11:10:01.962Z,984.59
2018-04-15T11:11:08.735Z,984.62
2018-04-15T11:12:15.704Z,984.61
2018-04-15T11:13:22.510Z,984.58
2018-04-15T11:14:29.380Z,984.63
2018-04-15T11:15:37.027Z,984.64
2018-04-15T11:16:43.179Z,984.61
2018-04-15T11:17:50.095Z,984.60
2018-04-15T11:18:57.166Z,984.58
2018-04-15T11:20:04.204Z,984.59
2018-04-15T11:21:11.060Z,984.60
2018-04-15T11:22:17.946Z,984.60
2018-04-15T11:23:24.779Z,984.55
2018-04-15T11:24:31.624Z,984.47
2018-04-15T11:25:38.592Z,984.53
2018-04-15T11:26:45.432Z,984.51
2018-04-15T11:27:52.322Z,984.55
2018-04-15T11:28:59.138Z,984.54
2018-04-15T11:30:06.003Z,984.50
2018-04-15T11:31:12.787Z,984.39
2018-04-15T11:32:19.632Z,984.50
2018-04-15T11:33:26.486Z,984.45
2018-04-15T11:34:33.326Z,984.47
2018-04-15T11:35:40.099Z,984.40
2018-04-15T11:36:46.909Z,984.41
2018-04-15T11:37:53.678Z,984.43
2018-04-15T11:39:00.483Z,984.42
2018-04-15T11:40:07.494Z,984.38
2018-04-15T11:41:15.223Z,984.38
2018-04-15T11:42:21.125Z,984.32
2018-04-15T11:43:27.906Z,984.41
2018-04-15T11:44:34.721Z,984.35
2018-04-15T11:45:41.596Z,984.37
2018-04-15T11:46:48.390Z,984.27
2018-04-15T11:47:55.285Z,984.30
2018-04-15T11:49:02.071Z,984.27
2018-04-15T11:50:08.982Z,984.22
2018-04-15T11:51:15.834Z,984.24
2018-04-15T11:52:22.622Z,984.28
2018-04-15T11:53:29.413Z,984.24
2018-04-15T11:54:36.590Z,984.20
2018-04-15T11:55:43.442Z,984.18
2018-04-15T11:56:50.202Z,984.19
2018-04-15T11:57:56.998Z,984.17
2018-04-15T11:59:03.879Z,984.16
2018-04-15T12:00:10.647Z,984.21
2018-04-15T12:01:17.603Z,984.20
2018-04-15T12:02:24.358Z,984.10
2018-04-15T12:03:31.467Z,984.14
2018-04-15T12:04:38.502Z,984.13
2018-04-15T12:05:45.318Z,984.14
2018-04-15T12:06:52.198Z,984.17
2018-04-15T12:07:58.990Z,984.12
2018-04-15T12:09:05.959Z,984.05
2018-04-15T12:10:12.787Z,984.17
2018-04-15T12:11:19.569Z,984.12
2018-04-15T12:12:26.365Z,984.15
2018-04-15T12:13:33.154Z,984.13
2018-04-15T12:14:39.987Z,984.13
2018-04-15T12:15:46.781Z,984.10
2018-04-15T12:16:53.683Z,984.12
2018-04-15T12:18:00.474Z,984.13
2018-04-15T12:19:07.471Z,984.12
2018-04-15T12:20:14.382Z,984.10
2018-04-15T12:21:21.242Z,984.04
2018-04-15T12:22:28.076Z,984.05
2018-04-15T12:23:34.906Z,984.03
2018-04-15T12:24:41.834Z,984.09
2018-04-15T12:25:48.665Z,984.01
2018-04-15T12:26:55.488Z,984.02
2018-04-15T12:28:02.376Z,984.01
2018-04-15T12:29:09.219Z,983.98
2018-04-15T12:30:16.082Z,983.97
2018-04-15T12:31:22.891Z,983.97
2018-04-15T12:32:29.758Z,984.00
2018-04-15T12:33:36.602Z,983.92
2018-04-15T12:34:43.355Z,983.88
2018-04-15T12:35:50.199Z,983.98
2018-04-15T12:36:57.011Z,983.91
2018-04-15T12:38:03.817Z,983.91
2018-04-15T12:39:10.620Z,983.90
2018-04-15T12:40:17.434Z,983.94
2018-04-15T12:41:24.235Z,983.86
2018-04-15T12:42:31.043Z,983.90
2018-04-15T12:43:37.884Z,983.80
2018-04-15T12:44:44.907Z,983.79
2018-04-15T12:45:51.672Z,983.81
2018-04-15T12:46:58.487Z,983.83
2018-04-15T12:48:05.322Z,983.79
2018-04-15T12:49:12.120Z,983.74
2018-04-15T12:50:18.955Z,983.68
2018-04-15T12:51:25.818Z,983.65
2018-04-15T12:52:32.582Z,983.67
2018-04-15T12:53:39.481Z,983.67
2018-04-15T12:54:46.387Z,983.65
2018-04-15T12:55:53.184Z,983.63
2018-04-15T12:56:59.954Z,983.63
2018-04-15T12:58:06.731Z,983.54
2018-04-15T12:59:13.512Z,983.59
2018-04-15T13:00:20.278Z,983.62
2018-04-15T13:01:27.103Z,983.69
2018-04-15T13:02:33.955Z,983.66
2018-04-15T13:03:40.718Z,983.64
2018-04-15T13:04:47.490Z,983.66
2018-04-15T13:05:54.375Z,983.60
2018-04-15T13:07:01.142Z,983.64
2018-04-15T13:08:07.942Z,983.54
2018-04-15T13:09:14.852Z,983.56
2018-04-15T13:10:21.631Z,983.55
2018-04-15T13:11:28.412Z,983.54
2018-04-15T13:12:35.308Z,983.55
2018-04-15T13:13:42.123Z,983.54
2018-04-15T13:14:48.891Z,983.52
2018-04-15T13:15:55.730Z,983.52
2018-04-15T13:17:02.549Z,983.51
2018-04-15T13:18:09.385Z,983.51
2018-04-15T13:19:16.203Z,983.44
2018-04-15T13:20:23.056Z,983.41
2018-04-15T13:21:29.815Z,983.52
2018-04-15T13:22:36.648Z,983.44
2018-04-15T13:23:43.468Z,983.42
2018-04-15T13:24:50.254Z,983.41
2018-04-15T13:25:57.101Z,983.41
2018-04-15T13:27:03.942Z,983.41
2018-04-15T13:28:10.722Z,983.43
2018-04-15T13:29:17.561Z,983.42
2018-04-15T13:30:24.411Z,983.41
2018-04-15T13:31:31.264Z,983.46
2018-04-15T13:32:38.016Z,983.28
2018-04-15T13:33:44.875Z,983.32
2018-04-15T13:34:51.661Z,983.26
2018-04-15T13:35:58.467Z,983.32
2018-04-15T13:37:05.243Z,983.25
2018-04-15T13:38:12.113Z,983.22
2018-04-15T13:39:18.938Z,983.10
2018-04-15T13:40:25.751Z,983.21
2018-04-15T13:41:32.527Z,983.18
2018-04-15T13:42:39.358Z,983.19
2018-04-15T13:43:46.131Z,983.18
2018-04-15T13:44:52.952Z,983.12
2018-04-15T13:45:59.809Z,983.10
2018-04-15T13:47:07.511Z,983.15
2018-04-15T13:48:13.310Z,983.08
2018-04-15T13:49:20.118Z,983.03
2018-04-15T13:50:26.946Z,983.03
2018-04-15T13:51:33.720Z,982.98
2018-04-15T13:52:40.625Z,983.01
2018-04-15T13:53:47.399Z,982.98
2018-04-15T13:54:54.187Z,983.04